Time;durP1;ratioP1;P1;durP2;ratioP2;P2;SDS_P1;SDS_P2;PMS_P1;PMS_P2;Temp;Humidity;BMP_temperature;BMP_pressure;BME280_temperature;BME280_humidity;BME280_pressure;Samples;Min_cycle;Max_cycle;Signal;HPM_P1;HPM_P2
2023/03/17 00:01:17;;;;;;;3.58;2.70;;;5.50;99.90;;;;;;4986477;28;20060;-77
2023/03/17 00:03:46;;;;;;;6.15;2.55;;;5.50;99.90;;;;;;4982740;28;20049;-77
2023/03/17 00:06:16;;;;;;;6.97;3.22;;;5.50;99.90;;;;;;4983543;28;20038;-77
2023/03/17 00:08:45;;;;;;;3.63;2.20;;;5.40;99.90;;;;;;4975942;28;20043;-77
2023/03/17 00:11:14;;;;;;;8.77;2.50;;;5.40;99.90;;;;;;4985191;28;20051;-77
2023/03/17 00:13:43;;;;;;;2.65;1.80;;;5.40;99.90;;;;;;4980450;28;20081;-76
2023/03/17 00:16:15;;;;;;;3.65;2.33;;;5.40;99.90;;;;;;4988771;28;20050;-76
2023/03/17 00:18:43;;;;;;;8.80;2.60;;;5.40;99.90;;;;;;4979475;28;20097;-77
2023/03/17 00:21:15;;;;;;;4.50;2.33;;;5.40;99.90;;;;;;4982567;28;20514;-77
2023/03/17 00:23:48;;;;;;;5.25;2.45;;;5.40;99.90;;;;;;4987521;28;20054;-77
2023/03/17 00:26:15;;;;;;;4.18;2.40;;;5.40;99.90;;;;;;4985312;28;20130;-76
2023/03/17 00:28:42;;;;;;;4.20;2.67;;;5.40;99.90;;;;;;4986494;28;20054;-77
2023/03/17 00:31:15;;;;;;;4.35;2.47;;;5.40;99.90;;;;;;4990561;28;20581;-77
2023/03/17 00:33:44;;;;;;;6.40;2.13;;;5.40;99.90;;;;;;4984740;28;20057;-76
2023/03/17 00:36:17;;;;;;;2.70;2.13;;;5.40;99.90;;;;;;4982472;28;20057;-76
2023/03/17 00:38:44;;;;;;;3.15;2.38;;;5.40;99.90;;;;;;4985259;28;20054;-76
2023/03/17 00:41:11;;;;;;;3.78;2.15;;;5.40;99.90;;;;;;4985008;28;20050;-76
2023/03/17 00:43:39;;;;;;;4.15;2.20;;;5.40;99.90;;;;;;4982762;28;20050;-76
2023/03/17 00:46:13;;;;;;;3.65;2.38;;;5.40;99.90;;;;;;4977996;28;20400;-77
2023/03/17 00:48:44;;;;;;;3.35;2.50;;;5.40;99.90;;;;;;4983193;28;20046;-76
2023/03/17 00:51:11;;;;;;;3.92;2.20;;;5.40;99.90;;;;;;4976427;28;20076;-76
2023/03/17 00:53:38;;;;;;;9.25;2.60;;;5.40;99.90;;;;;;4982138;28;20053;-76
2023/03/17 00:56:19;;;;;;;4.10;2.28;;;5.40;99.90;;;;;;4977170;28;20073;-76
2023/03/17 00:58:47;;;;;;;5.15;2.13;;;5.40;99.90;;;;;;4982751;28;20311;-77
2023/03/17 01:01:14;;;;;;;4.90;2.33;;;5.50;99.90;;;;;;4985113;28;20395;-76
2023/03/17 01:03:41;;;;;;;4.15;1.90;;;5.50;99.90;;;;;;4989232;28;20058;-76
2023/03/17 01:06:11;;;;;;;4.07;2.15;;;5.50;99.90;;;;;;4989968;28;20513;-76
2023/03/17 01:08:39;;;;;;;3.83;2.10;;;5.50;99.90;;;;;;4982809;28;20108;-76
2023/03/17 01:11:13;;;;;;;5.78;2.30;;;5.50;99.90;;;;;;4987747;28;20050;-76
2023/03/17 01:13:40;;;;;;;4.53;2.60;;;5.50;99.90;;;;;;4987531;28;20054;-76
2023/03/17 01:16:11;;;;;;;4.20;2.40;;;5.40;99.90;;;;;;4985267;28;20059;-76
2023/03/17 01:18:38;;;;;;;5.25;2.33;;;5.30;99.90;;;;;;4979346;28;20105;-76
2023/03/17 01:21:06;;;;;;;4.47;1.98;;;5.30;99.90;;;;;;4982887;28;20565;-77
2023/03/17 01:23:33;;;;;;;4.20;2.40;;;5.30;99.90;;;;;;4988317;28;20126;-76
2023/03/17 01:26:00;;;;;;;3.95;2.17;;;5.30;99.90;;;;;;5000403;28;20053;-76
2023/03/17 01:28:27;;;;;;;3.55;1.90;;;5.30;99.90;;;;;;5010022;28;20034;-76
2023/03/17 01:30:54;;;;;;;3.72;2.50;;;5.40;99.90;;;;;;5020668;28;20065;-77
2023/03/17 01:33:21;;;;;;;4.00;2.33;;;5.30;99.90;;;;;;5017391;28;20130;-75
2023/03/17 01:35:49;;;;;;;7.53;1.95;;;5.30;99.90;;;;;;5011339;28;20093;-76
2023/03/17 01:38:16;;;;;;;4.15;2.50;;;5.30;99.90;;;;;;4985058;28;20133;-76
2023/03/17 01:40:48;;;;;;;2.75;2.05;;;5.30;99.90;;;;;;4983358;28;20053;-76
2023/03/17 01:43:24;;;;;;;5.78;2.40;;;5.30;99.90;;;;;;4985196;28;20510;-76
2023/03/17 01:46:29;;;;;;;3.72;2.00;;;5.30;99.90;;;;;;4981036;28;20046;-76
2023/03/17 01:49:21;;;;;;;4.50;2.47;;;5.30;99.90;;;;;;4985079;28;20074;-76
2023/03/17 01:51:53;;;;;;;6.32;2.28;;;5.30;99.90;;;;;;4985296;28;20499;-76
2023/03/17 01:54:33;;;;;;;3.13;2.42;;;5.30;99.90;;;;;;4984223;28;20054;-77
2023/03/17 01:57:22;;;;;;;4.75;2.45;;;5.40;99.90;;;;;;4981057;28;20129;-76
2023/03/17 01:59:53;;;;;;;2.97;1.67;;;5.40;99.90;;;;;;4981222;28;20426;-76
2023/03/17 02:02:34;;;;;;;5.05;2.00;;;5.40;99.90;;;;;;4981438;28;20050;-76
2023/03/17 02:05:02;;;;;;;4.10;1.75;;;5.40;99.90;;;;;;4981681;28;20058;-76
2023/03/17 02:07:30;;;;;;;5.97;2.45;;;5.40;99.90;;;;;;4978812;28;20449;-76
2023/03/17 02:09:57;;;;;;;5.88;2.55;;;5.40;99.90;;;;;;4987114;28;20053;-76
2023/03/17 02:12:26;;;;;;;4.15;2.15;;;5.40;99.90;;;;;;4979339;28;20479;-76
2023/03/17 02:14:53;;;;;;;4.22;2.22;;;5.40;99.90;;;;;;4979675;28;20498;-76
2023/03/17 02:17:22;;;;;;;4.97;3.10;;;5.50;99.90;;;;;;4975673;28;20070;-76
2023/03/17 02:19:49;;;;;;;4.38;2.10;;;5.50;99.90;;;;;;4980632;28;20046;-75
2023/03/17 02:22:17;;;;;;;4.15;2.40;;;5.40;99.90;;;;;;4977549;28;20053;-76
2023/03/17 02:24:54;;;;;;;3.88;2.10;;;5.40;99.90;;;;;;4983020;28;20042;-76
2023/03/17 02:27:28;;;;;;;3.70;1.98;;;5.40;99.90;;;;;;4987016;28;20051;-76
2023/03/17 02:29:55;;;;;;;3.10;2.15;;;5.40;99.90;;;;;;4984658;28;20046;-76
2023/03/17 02:32:22;;;;;;;3.08;2.40;;;5.40;99.90;;;;;;4983953;28;20058;-76
2023/03/17 02:34:49;;;;;;;4.43;2.10;;;5.40;99.90;;;;;;4983398;28;20061;-77
2023/03/17 02:37:18;;;;;;;4.70;2.08;;;5.30;99.90;;;;;;4988001;28;20051;-76
2023/03/17 02:39:45;;;;;;;6.60;2.00;;;5.30;99.90;;;;;;4980035;28;20089;-76
2023/03/17 02:42:12;;;;;;;3.85;2.20;;;5.30;99.90;;;;;;4988496;28;20070;-76
2023/03/17 02:44:39;;;;;;;3.75;1.80;;;5.30;99.90;;;;;;4982304;28;20403;-76
2023/03/17 02:47:07;;;;;;;5.40;2.13;;;5.30;99.90;;;;;;4981771;28;20068;-77
2023/03/17 02:49:35;;;;;;;3.58;2.28;;;5.30;99.90;;;;;;4977644;28;20130;-76
2023/03/17 02:52:02;;;;;;;5.88;2.00;;;5.30;99.90;;;;;;4980474;28;20164;-76
2023/03/17 02:54:29;;;;;;;3.05;1.85;;;5.30;99.90;;;;;;4976697;28;20046;-76
2023/03/17 02:56:56;;;;;;;3.30;1.90;;;5.30;99.90;;;;;;4979015;28;20086;-76
2023/03/17 02:59:23;;;;;;;5.03;2.35;;;5.30;99.90;;;;;;4977179;28;20084;-75
2023/03/17 03:01:50;;;;;;;4.65;2.40;;;5.30;99.90;;;;;;4982292;28;20130;-76
2023/03/17 03:04:18;;;;;;;4.63;2.70;;;5.30;99.90;;;;;;4988215;28;20142;-76
2023/03/17 03:06:46;;;;;;;4.72;2.22;;;5.30;99.90;;;;;;4984062;28;20192;-76
2023/03/17 03:09:14;;;;;;;2.90;1.83;;;5.20;99.90;;;;;;4987485;28;20082;-76
2023/03/17 03:11:41;;;;;;;5.40;2.35;;;5.20;99.90;;;;;;4986833;28;20085;-76
2023/03/17 03:14:08;;;;;;;7.10;2.40;;;5.20;99.90;;;;;;4981191;28;20073;-76
2023/03/17 03:16:36;;;;;;;4.75;2.13;;;5.20;99.90;;;;;;4982117;28;20061;-76
2023/03/17 03:19:03;;;;;;;7.13;2.35;;;5.10;99.90;;;;;;4984290;28;20050;-76
2023/03/17 03:21:30;;;;;;;3.83;1.98;;;5.10;99.90;;;;;;4981888;28;20577;-76
2023/03/17 03:23:57;;;;;;;3.65;1.90;;;5.00;99.90;;;;;;4984641;28;20049;-76
2023/03/17 03:26:23;;;;;;;6.90;2.35;;;5.00;99.90;;;;;;4991754;28;20050;-76
2023/03/17 03:28:50;;;;;;;3.30;2.10;;;5.00;99.90;;;;;;4986317;28;20042;-76
2023/03/17 03:31:17;;;;;;;5.13;2.10;;;5.00;99.90;;;;;;4979768;28;20133;-76
2023/03/17 03:33:44;;;;;;;3.92;2.10;;;5.00;99.90;;;;;;4982367;28;20092;-76
2023/03/17 03:36:12;;;;;;;4.22;2.13;;;5.00;99.90;;;;;;4976741;28;20051;-76
2023/03/17 03:38:38;;;;;;;2.95;1.88;;;5.00;99.90;;;;;;4983636;28;20046;-76
2023/03/17 03:41:06;;;;;;;4.88;2.25;;;4.90;99.90;;;;;;4979346;28;20047;-76
2023/03/17 03:43:33;;;;;;;4.97;2.40;;;4.90;99.90;;;;;;4982135;28;20133;-75
2023/03/17 03:46:00;;;;;;;5.30;2.53;;;4.90;99.90;;;;;;4979977;28;20050;-76
2023/03/17 03:48:27;;;;;;;5.40;2.42;;;4.90;99.90;;;;;;4984441;28;20042;-75
2023/03/17 03:50:59;;;;;;;5.10;2.33;;;4.90;99.90;;;;;;4986545;28;20073;-76
2023/03/17 03:53:26;;;;;;;4.28;2.22;;;4.90;99.90;;;;;;4991479;28;20525;-76
2023/03/17 03:55:54;;;;;;;4.45;2.40;;;4.80;99.90;;;;;;4993299;28;20051;-76
2023/03/17 03:58:21;;;;;;;3.70;2.47;;;4.80;99.90;;;;;;4985446;28;20430;-76
2023/03/17 04:00:48;;;;;;;4.32;2.63;;;4.80;99.90;;;;;;4986013;28;20061;-76
2023/03/17 04:03:15;;;;;;;4.25;2.42;;;4.70;99.90;;;;;;4981038;28;20458;-76
2023/03/17 04:05:42;;;;;;;3.22;2.40;;;4.70;99.90;;;;;;4985113;28;20430;-76
2023/03/17 04:08:09;;;;;;;4.03;2.20;;;4.70;99.90;;;;;;4984145;28;20050;-76
2023/03/17 04:10:36;;;;;;;2.85;2.08;;;4.60;99.90;;;;;;4984220;28;20141;-76
2023/03/17 04:13:03;;;;;;;3.75;2.15;;;4.60;99.90;;;;;;4978053;28;20574;-76
2023/03/17 04:15:30;;;;;;;3.30;2.15;;;4.60;99.90;;;;;;4983048;28;20129;-76
2023/03/17 04:17:56;;;;;;;4.63;2.90;;;4.50;99.90;;;;;;4978548;28;20135;-76
2023/03/17 04:20:23;;;;;;;6.20;2.40;;;4.60;99.90;;;;;;4981887;28;20057;-76
2023/03/17 04:22:50;;;;;;;6.47;2.65;;;4.60;99.90;;;;;;4979500;28;20065;-76
2023/03/17 04:25:17;;;;;;;3.85;2.00;;;4.50;99.90;;;;;;4990891;28;20046;-76
2023/03/17 04:27:44;;;;;;;4.93;2.35;;;4.50;99.90;;;;;;4980755;28;20506;-75
2023/03/17 04:30:15;;;;;;;5.50;2.15;;;4.60;99.90;;;;;;4980163;28;20066;-76
2023/03/17 04:32:43;;;;;;;2.60;1.88;;;4.50;99.90;;;;;;4988303;28;20062;-76
2023/03/17 04:35:16;;;;;;;3.78;1.88;;;4.50;99.90;;;;;;4986982;28;20050;-76
2023/03/17 04:37:43;;;;;;;4.25;2.20;;;4.50;99.90;;;;;;4987181;28;20042;-75
2023/03/17 04:40:11;;;;;;;3.97;2.58;;;4.50;99.90;;;;;;4985320;28;20490;-75
2023/03/17 04:42:39;;;;;;;4.38;2.10;;;4.40;99.90;;;;;;4986942;28;20057;-75
2023/03/17 04:45:08;;;;;;;3.88;2.03;;;4.40;99.90;;;;;;4984360;28;20054;-76
2023/03/17 04:47:35;;;;;;;3.25;2.03;;;4.40;99.90;;;;;;4983106;28;20104;-75
2023/03/17 04:50:02;;;;;;;9.55;2.25;;;4.40;99.90;;;;;;4982761;28;20053;-76
2023/03/17 04:52:28;;;;;;;3.47;1.70;;;4.30;99.90;;;;;;4981838;28;20050;-77
2023/03/17 04:54:55;;;;;;;3.10;1.77;;;4.30;99.90;;;;;;4980749;28;20058;-75
2023/03/17 04:57:23;;;;;;;3.28;1.77;;;4.30;99.90;;;;;;4979868;28;20061;-76
2023/03/17 04:59:50;;;;;;;4.07;1.70;;;4.30;99.90;;;;;;4982461;28;20117;-76
2023/03/17 05:02:19;;;;;;;1.95;1.80;;;4.30;99.90;;;;;;4978180;28;20137;-75
2023/03/17 05:04:49;;;;;;;2.47;1.60;;;4.30;99.90;;;;;;4982553;28;20086;-76
2023/03/17 05:07:15;;;;;;;1.98;1.38;;;4.30;99.90;;;;;;4976678;28;20297;-74
2023/03/17 05:09:42;;;;;;;4.90;1.80;;;4.30;99.90;;;;;;4981999;28;20051;-74
2023/03/17 05:12:09;;;;;;;2.58;1.58;;;4.30;99.90;;;;;;4976142;28;20053;-75
2023/03/17 05:14:36;;;;;;;3.63;1.40;;;4.30;99.90;;;;;;4982668;28;20050;-75
2023/03/17 05:17:03;;;;;;;3.08;1.50;;;4.20;99.90;;;;;;4987738;28;20502;-75
2023/03/17 05:19:29;;;;;;;2.65;1.63;;;4.20;99.90;;;;;;4986032;28;20098;-78
2023/03/17 05:21:56;;;;;;;2.85;1.40;;;4.20;99.90;;;;;;4988162;28;20053;-76
2023/03/17 05:24:23;;;;;;;2.53;1.77;;;4.20;99.90;;;;;;4990174;28;20050;-76
2023/03/17 05:26:50;;;;;;;6.18;2.03;;;4.20;99.90;;;;;;4985360;28;20046;-75
2023/03/17 05:29:17;;;;;;;1.88;1.50;;;4.20;99.90;;;;;;4979751;28;20069;-75
2023/03/17 05:31:43;;;;;;;4.00;1.55;;;4.20;99.90;;;;;;4983650;28;20042;-76
2023/03/17 05:34:10;;;;;;;3.40;1.52;;;4.20;99.90;;;;;;4978817;28;20050;-75
2023/03/17 05:36:37;;;;;;;4.07;1.70;;;4.20;99.90;;;;;;4981880;28;20133;-76
2023/03/17 05:39:04;;;;;;;2.22;1.45;;;4.10;99.90;;;;;;4986120;28;20054;-76
2023/03/17 05:41:30;;;;;;;2.03;1.40;;;4.10;99.90;;;;;;4982472;28;20057;-76
2023/03/17 05:43:57;;;;;;;3.67;1.67;;;4.10;99.90;;;;;;4984104;28;20103;-76
2023/03/17 05:46:25;;;;;;;2.53;1.40;;;4.10;99.90;;;;;;4981425;28;20499;-76
2023/03/17 05:48:52;;;;;;;5.75;1.80;;;4.10;99.90;;;;;;4975694;28;20548;-76
2023/03/17 05:51:19;;;;;;;1.75;1.50;;;4.10;99.90;;;;;;4985857;28;20054;-76
2023/03/17 05:53:48;;;;;;;3.03;1.77;;;4.10;99.90;;;;;;4978337;28;20049;-76
2023/03/17 05:56:15;;;;;;;3.85;1.73;;;4.10;99.90;;;;;;4984778;28;20435;-76
2023/03/17 05:58:42;;;;;;;5.10;1.70;;;4.10;99.90;;;;;;4987988;28;20053;-76
2023/03/17 06:01:09;;;;;;;4.13;2.28;;;4.10;99.90;;;;;;4981490;28;20059;-75
2023/03/17 06:03:37;;;;;;;7.93;3.33;;;4.20;99.90;;;;;;4986537;28;20042;-76
2023/03/17 06:06:05;;;;;;;4.60;2.92;;;4.10;99.90;;;;;;4984082;28;20039;-76
2023/03/17 06:08:31;;;;;;;4.70;2.00;;;4.20;99.90;;;;;;4987503;28;20050;-76
2023/03/17 06:10:58;;;;;;;2.58;1.98;;;4.20;99.90;;;;;;4981484;28;20141;-75
2023/03/17 06:13:25;;;;;;;4.13;2.38;;;4.20;99.90;;;;;;4988617;28;20042;-76
2023/03/17 06:15:51;;;;;;;7.60;2.55;;;4.20;99.90;;;;;;4981670;28;20391;-75
2023/03/17 06:18:18;;;;;;;4.97;2.63;;;4.20;99.90;;;;;;4980194;28;20053;-76
2023/03/17 06:20:45;;;;;;;5.00;2.05;;;4.30;99.90;;;;;;4980598;28;20482;-76
2023/03/17 06:23:12;;;;;;;6.50;2.70;;;4.30;99.90;;;;;;4980313;28;20121;-76
2023/03/17 06:25:39;;;;;;;6.32;2.72;;;4.30;99.90;;;;;;4977164;28;20086;-76
2023/03/17 06:28:06;;;;;;;9.50;3.22;;;4.30;99.90;;;;;;4987031;28;20051;-75
2023/03/17 06:30:34;;;;;;;13.02;2.97;;;4.40;99.90;;;;;;4977433;28;20050;-75
2023/03/17 06:33:02;;;;;;;4.38;2.55;;;4.40;99.90;;;;;;4984283;28;20502;-75
2023/03/17 06:35:29;;;;;;;5.57;2.75;;;4.40;99.90;;;;;;4981640;28;20050;-76
2023/03/17 06:37:56;;;;;;;3.35;2.38;;;4.50;99.90;;;;;;4985471;28;20046;-75
2023/03/17 06:40:23;;;;;;;3.40;2.08;;;4.50;99.90;;;;;;4981276;28;20344;-75
2023/03/17 06:42:50;;;;;;;4.25;2.20;;;4.50;99.90;;;;;;4980580;28;20053;-75
2023/03/17 06:45:17;;;;;;;4.35;2.30;;;4.60;99.90;;;;;;4982684;28;20082;-75
2023/03/17 06:47:43;;;;;;;4.22;2.40;;;4.60;99.90;;;;;;4980730;28;20122;-75
2023/03/17 06:50:11;;;;;;;2.50;2.15;;;4.70;99.90;;;;;;4981194;28;20047;-76
2023/03/17 06:52:38;;;;;;;7.43;2.97;;;4.80;99.90;;;;;;4982731;28;20469;-76
2023/03/17 06:55:07;;;;;;;8.15;4.10;;;4.80;99.90;;;;;;4982479;28;20043;-76
2023/03/17 06:57:34;;;;;;;8.82;3.53;;;4.90;99.90;;;;;;4983117;28;20057;-76
2023/03/17 07:00:03;;;;;;;6.53;2.90;;;5.00;99.90;;;;;;4981691;28;20511;-76
2023/03/17 07:02:31;;;;;;;5.35;3.25;;;5.00;99.90;;;;;;4991473;28;20054;-76
2023/03/17 07:04:58;;;;;;;6.93;3.80;;;5.10;99.90;;;;;;4980846;28;20077;-76
2023/03/17 07:07:26;;;;;;;8.77;2.95;;;5.20;99.90;;;;;;4985115;28;20494;-76
2023/03/17 07:09:53;;;;;;;5.75;2.70;;;5.30;99.90;;;;;;4979533;28;20058;-76
2023/03/17 07:12:20;;;;;;;4.40;2.42;;;5.30;99.90;;;;;;4984341;28;20521;-76
2023/03/17 07:14:47;;;;;;;5.55;2.13;;;5.40;99.90;;;;;;4986001;28;20057;-76
2023/03/17 07:17:14;;;;;;;3.97;2.20;;;5.50;99.90;;;;;;4985689;28;20049;-75
2023/03/17 07:19:41;;;;;;;8.25;4.25;;;5.50;99.90;;;;;;4980895;28;20060;-77
2023/03/17 07:22:12;;;;;;;9.13;3.38;;;5.60;99.90;;;;;;4985883;28;20050;-77
2023/03/17 07:24:40;;;;;;;;;;;5.70;99.90;;;;;;4992748;28;20050;-77
2023/03/17 07:27:07;;;;;;;15.25;4.90;;;5.70;99.90;;;;;;4985569;28;20008;-77
2023/03/17 07:29:34;;;;;;;8.00;4.72;;;5.80;99.90;;;;;;4992795;28;20050;-77
2023/03/17 07:32:02;;;;;;;8.50;5.35;;;5.80;99.90;;;;;;4985746;28;20046;-77
2023/03/17 07:34:29;;;;;;;11.02;5.75;;;5.90;99.90;;;;;;4991949;28;20050;-77
2023/03/17 07:36:56;;;;;;;7.70;5.10;;;6.00;99.90;;;;;;4982270;28;20054;-76
2023/03/17 07:39:22;;;;;;;10.90;4.28;;;6.00;99.90;;;;;;4985858;28;20042;-75
2023/03/17 07:41:53;;;;;;;7.90;3.70;;;6.00;99.90;;;;;;4990796;28;20055;-75
2023/03/17 07:44:21;;;;;;;11.38;4.25;;;6.10;99.90;;;;;;4985656;28;20133;-75
2023/03/17 07:46:50;;;;;;;5.95;3.88;;;6.10;99.90;;;;;;4979506;28;20134;-75
2023/03/17 07:49:17;;;;;;;9.15;4.40;;;6.10;99.90;;;;;;4986654;28;20081;-75
2023/03/17 07:51:53;;;;;;;10.98;5.55;;;6.20;99.90;;;;;;4989584;28;20134;-76
2023/03/17 07:54:20;;;;;;;12.10;6.13;;;6.20;99.90;;;;;;4984326;28;20054;-76
2023/03/17 07:56:46;;;;;;;22.65;9.52;;;6.30;99.90;;;;;;4983599;28;20048;-76
2023/03/17 07:59:14;;;;;;;14.85;8.70;;;6.30;99.90;;;;;;4982943;28;20062;-75
2023/03/17 08:01:40;;;;;;;12.10;7.43;;;6.40;99.90;;;;;;4978363;28;20042;-76
2023/03/17 08:04:09;;;;;;;11.50;6.53;;;6.40;99.90;;;;;;4984774;28;20524;-76
2023/03/17 08:06:37;;;;;;;11.82;5.88;;;6.50;99.90;;;;;;4991490;28;20051;-76
2023/03/17 08:09:04;;;;;;;10.45;5.85;;;6.50;99.90;;;;;;4984408;28;20054;-76
2023/03/17 08:11:30;;;;;;;10.35;6.10;;;6.60;99.90;;;;;;4992405;28;20050;-76
2023/03/17 08:13:58;;;;;;;8.18;4.85;;;6.70;99.90;;;;;;4982810;28;20046;-76
2023/03/17 08:16:25;;;;;;;10.00;5.70;;;6.70;99.90;;;;;;4987765;28;20538;-76
2023/03/17 08:18:52;;;;;;;10.70;4.68;;;6.80;99.90;;;;;;4986920;28;20046;-76
2023/03/17 08:21:19;;;;;;;8.27;5.90;;;6.80;99.90;;;;;;4983602;28;20498;-76
2023/03/17 08:23:48;;;;;;;9.30;4.85;;;6.90;99.90;;;;;;4981801;28;20042;-76
2023/03/17 08:26:15;;;;;;;10.40;5.40;;;7.00;99.90;;;;;;4983036;28;20049;-76
2023/03/17 08:28:42;;;;;;;10.15;5.18;;;7.00;99.90;;;;;;4985458;28;20096;-75
2023/03/17 08:31:15;;;;;;;11.93;5.45;;;7.10;99.90;;;;;;4982796;28;20522;-76
2023/03/17 08:33:49;;;;;;;10.20;5.63;;;7.20;99.90;;;;;;4980062;28;20042;-76
2023/03/17 08:36:17;;;;;;;10.50;5.25;;;7.20;99.90;;;;;;4982246;28;20054;-76
2023/03/17 08:38:45;;;;;;;12.18;4.88;;;7.30;99.90;;;;;;4989628;28;20429;-76
2023/03/17 08:41:17;;;;;;;6.15;4.30;;;7.40;99.90;;;;;;4985371;28;20050;-76
2023/03/17 08:43:45;;;;;;;6.88;4.35;;;7.50;99.90;;;;;;4979381;28;20051;-76
2023/03/17 08:46:21;;;;;;;9.35;5.13;;;7.50;99.90;;;;;;4983916;28;20042;-76
2023/03/17 08:48:50;;;;;;;8.73;5.15;;;7.60;99.90;;;;;;4987904;28;20038;-76
2023/03/17 08:51:18;;;;;;;8.75;4.28;;;7.70;99.90;;;;;;4987008;28;20046;-76
2023/03/17 08:53:50;;;;;;;6.22;3.70;;;7.80;99.90;;;;;;4987624;28;20050;-76
2023/03/17 08:56:16;;;;;;;7.28;4.18;;;7.90;99.90;;;;;;4990056;28;20392;-76
2023/03/17 08:58:43;;;;;;;7.50;3.70;;;8.00;99.90;;;;;;4984878;28;20046;-76
2023/03/17 09:01:10;;;;;;;7.32;3.70;;;8.10;99.90;;;;;;4980802;28;20043;-76
2023/03/17 09:03:38;;;;;;;7.65;3.83;;;8.20;99.90;;;;;;4984796;28;20518;-76
2023/03/17 09:06:06;;;;;;;7.07;4.38;;;8.30;99.90;;;;;;4979938;28;20083;-76
2023/03/17 09:08:34;;;;;;;11.25;4.38;;;8.40;99.90;;;;;;4982604;28;20046;-76
2023/03/17 09:11:04;;;;;;;7.97;4.25;;;8.50;99.90;;;;;;4986549;28;20047;-76
2023/03/17 09:13:32;;;;;;;5.18;3.70;;;8.60;99.90;;;;;;4982358;28;20093;-76
2023/03/17 09:16:00;;;;;;;7.20;4.55;;;8.80;99.90;;;;;;4977606;28;20053;-76
2023/03/17 09:18:27;;;;;;;5.43;3.88;;;8.90;99.90;;;;;;4995437;28;20129;-76
2023/03/17 09:20:53;;;;;;;9.30;3.67;;;9.00;99.90;;;;;;4981354;28;20380;-76
2023/03/17 09:23:22;;;;;;;8.32;4.45;;;9.10;99.90;;;;;;4979093;28;20047;-75
2023/03/17 09:25:48;;;;;;;8.18;3.78;;;9.20;99.90;;;;;;4988492;28;20082;-76
2023/03/17 09:28:16;;;;;;;11.18;4.07;;;9.30;99.90;;;;;;4988235;28;20510;-76
2023/03/17 09:30:43;;;;;;;5.28;3.85;;;9.30;99.90;;;;;;4990920;28;20145;-76
2023/03/17 09:33:11;;;;;;;8.02;4.05;;;9.40;99.90;;;;;;4981901;28;20502;-76
2023/03/17 09:35:38;;;;;;;7.22;4.25;;;9.50;99.90;;;;;;4990334;28;20426;-76
2023/03/17 09:38:06;;;;;;;5.97;3.78;;;9.50;99.90;;;;;;4983299;28;20134;-76
2023/03/17 09:40:42;;;;;;;7.20;4.07;;;9.60;99.90;;;;;;4983907;28;20051;-76
2023/03/17 09:43:21;;;;;;;6.60;4.60;;;9.60;99.90;;;;;;4997474;28;20039;-76
2023/03/17 09:45:48;;;;;;;9.18;4.13;;;9.80;99.90;;;;;;4982652;28;20517;-76
2023/03/17 09:48:33;;;;;;;8.90;4.03;;;9.90;99.90;;;;;;4977851;28;20058;-76
2023/03/17 09:51:09;;;;;;;7.05;3.88;;;10.00;99.90;;;;;;4989305;28;20046;-76
2023/03/17 09:53:50;;;;;;;7.80;3.45;;;10.10;99.90;;;;;;4980351;28;20690;-77
2023/03/17 09:56:18;;;;;;;6.25;3.65;;;10.10;99.90;;;;;;4983790;28;20047;-76
2023/03/17 09:58:58;;;;;;;8.02;4.18;;;10.20;99.90;;;;;;4978215;28;20524;-76
2023/03/17 10:01:25;;;;;;;5.97;3.33;;;10.30;99.90;;;;;;4983712;28;20050;-77
2023/03/17 10:03:52;;;;;;;4.68;3.40;;;10.40;99.90;;;;;;4977497;28;20047;-76
2023/03/17 10:06:45;;;;;;;5.60;3.25;;;10.60;99.90;;;;;;4984242;28;20081;-77
2023/03/17 10:09:12;;;;;;;7.57;3.55;;;10.70;99.90;;;;;;4989271;28;20050;-76
2023/03/17 10:11:51;;;;;;;6.28;3.42;;;10.90;99.90;;;;;;4983063;28;20045;-77
2023/03/17 10:14:46;;;;;;;5.13;3.10;;;11.00;99.90;;;;;;4987827;28;20433;-76
2023/03/17 10:17:30;;;;;;;10.25;5.28;;;11.10;99.90;;;;;;4983906;28;20057;-77
2023/03/17 10:20:17;;;;;;;12.68;5.38;;;11.40;99.90;;;;;;4981825;28;20050;-77
2023/03/17 10:22:51;;;;;;;8.10;3.75;;;11.60;99.90;;;;;;4988718;28;20073;-76
2023/03/17 10:25:21;;;;;;;8.93;3.90;;;11.70;99.90;;;;;;4976691;28;20503;-76
2023/03/17 10:27:56;;;;;;;8.88;4.13;;;11.80;99.90;;;;;;4984222;28;20042;-76
2023/03/17 10:30:23;;;;;;;7.40;4.10;;;11.90;99.90;;;;;;4992317;28;20056;-76
2023/03/17 10:32:52;;;;;;;7.38;3.70;;;12.10;99.90;;;;;;4983310;28;20085;-76
2023/03/17 10:35:21;;;;;;;8.25;3.53;;;12.10;99.90;;;;;;4987200;28;20105;-77
2023/03/17 10:37:48;;;;;;;7.38;3.78;;;12.20;99.90;;;;;;4994165;28;20049;-76
2023/03/17 10:40:23;;;;;;;7.30;4.18;;;12.30;99.90;;;;;;4983581;28;20049;-77
2023/03/17 10:43:00;;;;;;;5.82;3.83;;;12.40;99.90;;;;;;4981351;28;20100;-76
2023/03/17 10:45:30;;;;;;;5.20;2.92;;;12.40;99.90;;;;;;4998901;28;20046;-76
2023/03/17 10:47:58;;;;;;;7.20;2.90;;;12.50;99.90;;;;;;4996244;28;20042;-76
2023/03/17 10:50:34;;;;;;;5.85;3.08;;;12.50;99.90;;;;;;4987830;28;20058;-76
2023/03/17 10:53:17;;;;;;;6.85;3.25;;;12.60;99.90;;;;;;4985239;28;20517;-77
2023/03/17 10:55:49;;;;;;;4.18;2.83;;;12.60;99.90;;;;;;5003991;28;20077;-76
2023/03/17 10:58:17;;;;;;;4.43;2.88;;;12.80;99.90;;;;;;4984185;28;20051;-77
2023/03/17 11:00:55;;;;;;;5.40;2.70;;;12.80;99.90;;;;;;4988575;28;20050;-77
2023/03/17 11:03:26;;;;;;;6.68;2.90;;;13.00;99.90;;;;;;4983309;28;20050;-76
2023/03/17 11:06:05;;;;;;;5.28;2.88;;;13.10;99.90;;;;;;4989476;28;20053;-77
2023/03/17 11:08:38;;;;;;;5.43;2.97;;;13.20;99.90;;;;;;4986309;28;20050;-80
2023/03/17 11:11:25;;;;;;;6.65;2.55;;;13.30;99.90;;;;;;4989682;28;20675;-76
2023/03/17 11:14:15;;;;;;;3.65;2.72;;;13.40;99.90;;;;;;4982473;28;20502;-76
2023/03/17 11:16:53;;;;;;;;;;;13.50;99.90;;;;;;4982693;28;20076;-76
2023/03/17 11:19:43;;;;;;;5.53;3.30;;;13.70;99.90;;;;;;4987862;28;19925;-76
2023/03/17 11:22:19;;;;;;;5.63;3.17;;;13.80;99.90;;;;;;4987431;28;20438;-76
2023/03/17 11:25:03;;;;;;;6.88;2.80;;;13.90;99.90;;;;;;4986297;28;20074;-76
2023/03/17 11:27:34;;;;;;;4.35;2.40;;;14.00;99.90;;;;;;4985684;28;20073;-75
2023/03/17 11:30:22;;;;;;;4.75;2.75;;;14.20;99.90;;;;;;4987323;28;20046;-76
2023/03/17 11:33:16;;;;;;;3.45;2.60;;;14.30;99.90;;;;;;4987119;28;20050;-76
2023/03/17 11:36:10;;;;;;;7.38;2.80;;;14.40;99.90;;;;;;4986368;28;20055;-76
2023/03/17 11:39:07;;;;;;;5.35;2.95;;;14.50;99.90;;;;;;4982306;28;20057;-76
2023/03/17 11:42:00;;;;;;;4.95;2.70;;;14.60;99.90;;;;;;4986248;28;20046;-77
2023/03/17 11:44:52;;;;;;;8.70;3.33;;;14.70;99.90;;;;;;4991396;28;20046;-76
2023/03/17 11:47:35;;;;;;;5.70;2.38;;;14.80;99.90;;;;;;4989820;28;20065;-76
2023/03/17 11:50:22;;;;;;;7.13;2.45;;;14.90;99.90;;;;;;4981359;28;20521;-79
2023/03/17 11:53:15;;;;;;;5.63;2.45;;;15.00;99.90;;;;;;4989893;28;20181;-76
2023/03/17 11:55:50;;;;;;;5.82;2.33;;;15.20;99.90;;;;;;4986811;28;20047;-76
2023/03/17 11:58:27;;;;;;;5.82;2.08;;;15.20;99.90;;;;;;4984368;28;20466;-76
2023/03/17 12:00:59;;;;;;;5.80;2.75;;;15.30;99.90;;;;;;4982407;28;20418;-76
2023/03/17 12:03:47;;;;;;;6.15;2.35;;;15.40;99.90;;;;;;4982885;28;20447;-75
2023/03/17 12:06:27;;;;;;;6.75;2.60;;;15.40;99.90;;;;;;4983107;28;20053;-76
2023/03/17 12:08:58;;;;;;;4.90;2.13;;;15.50;99.90;;;;;;4982809;28;20079;-77
2023/03/17 12:11:28;;;;;;;7.03;2.83;;;15.60;99.90;;;;;;4988282;28;20125;-76
2023/03/17 12:14:04;;;;;;;7.93;2.97;;;15.80;99.90;;;;;;4983594;28;20513;-76
2023/03/17 12:16:40;;;;;;;3.72;2.60;;;15.90;99.90;;;;;;4982175;28;20059;-76
2023/03/17 12:19:10;;;;;;;5.13;2.88;;;16.00;99.90;;;;;;4982865;28;20399;-76
2023/03/17 12:21:51;;;;;;;6.22;2.47;;;16.10;99.90;;;;;;4985118;28;20054;-76
2023/03/17 12:24:24;;;;;;;5.78;2.80;;;16.10;99.90;;;;;;4978522;28;20045;-76
2023/03/17 12:27:00;;;;;;;4.10;2.20;;;16.10;99.90;;;;;;4984380;28;20046;-76
2023/03/17 12:30:02;;;;;;;4.22;2.28;;;16.10;99.90;;;;;;4979794;28;20134;-76
2023/03/17 12:32:38;;;;;;;5.32;2.20;;;16.20;99.90;;;;;;4987851;28;20061;-77
2023/03/17 12:35:25;;;;;;;4.18;2.20;;;16.30;99.90;;;;;;4984621;28;20049;-76
2023/03/17 12:37:53;;;;;;;5.63;2.63;;;16.40;99.90;;;;;;4980112;28;20085;-76
2023/03/17 12:40:24;;;;;;;5.90;2.33;;;16.40;99.90;;;;;;4981041;28;20062;-76
2023/03/17 12:43:27;;;;;;;5.88;2.88;;;16.50;99.90;;;;;;4982566;28;20141;-75
2023/03/17 12:46:31;;;;;;;5.70;1.65;;;16.60;99.90;;;;;;4981987;28;20055;-76
2023/03/17 12:49:44;;;;;;;4.22;1.52;;;16.70;99.90;;;;;;4981950;28;20046;-75
2023/03/17 12:52:19;;;;;;;5.53;1.80;;;16.80;99.90;;;;;;4943604;29;20134;-76
2023/03/17 12:54:50;;;;;;;3.42;1.88;;;16.80;99.90;;;;;;4941565;29;20582;-76
2023/03/17 12:57:21;;;;;;;2.00;1.45;;;16.80;99.90;;;;;;4969812;28;20137;-77
2023/03/17 12:59:56;;;;;;;4.28;1.55;;;16.80;99.90;;;;;;4985440;28;20057;-76
2023/03/17 13:02:34;;;;;;;3.00;1.35;;;16.90;99.90;;;;;;4986213;28;20422;-76
2023/03/17 13:05:08;;;;;;;2.50;1.60;;;16.90;99.90;;;;;;4989624;28;20081;-76
2023/03/17 13:07:53;;;;;;;4.40;1.48;;;16.90;99.90;;;;;;4983924;28;20051;-76
2023/03/17 13:10:42;;;;;;;1.98;1.55;;;16.90;99.90;;;;;;4983115;28;20046;-77
2023/03/17 13:13:35;;;;;;;5.32;1.65;;;16.90;99.90;;;;;;4982769;28;20105;-77
2023/03/17 13:16:04;;;;;;;6.38;2.25;;;16.90;99.90;;;;;;4979743;28;20046;-77